• Join FlightAware (Why Join?)
  • Login
  • US Flag 
09:24PM EST


 

Airport Tracker/Info


-or-


 

Live Flight TrackerFlight Track Log ✈ N678H ✈ 25-Feb-2014 ✈ KTXK - KASG

Flight Track Log - Related Links

Times and Time Zones

All times are in EST time to prevent confusion due to time zone crossing. See the N678H flight status page for this flight to view local times or setup timezone preferences in your user account.

Time Position Orientation Groundspeed Altitude Reporting Facility
EST Latitude Longitude Course Direction KTS MPH feet Rate Location/Type
05:03PM 33.4647 -93.9836 355° North 104 120 900  Level Fort Worth Center
05:04PM 33.4936 -93.9869 355° North 105 121 2,000 960 Climbing Fort Worth Center
05:05PM 33.5228 -93.9925 351° North 105 121 3,000 780 Climbing Fort Worth Center
05:06PM 33.5553 -93.9997 350° North 109 125 3,700 840 Climbing Fort Worth Center
05:07PM 33.5956 -93.9850 17° North 120 138 4,800 960 Climbing Fort Worth Center
05:08PM 33.6328 -93.9728 15° North 129 148 5,700 840 Climbing Fort Worth Center
05:09PM 33.6708 -93.9594 16° North 136 157 6,600 720 Climbing Fort Worth Center
05:10PM 33.7061 -93.9586 North 139 160 7,300 780 Climbing Fort Worth Center
05:11PM 33.7417 -93.9667 349° North 135 155 8,300 780 Climbing Fort Worth Center
05:12PM 33.7758 -93.9783 344° North 129 148 9,000 840 Climbing Fort Worth Center
05:13PM 33.8161 -93.9903 346° North 128 147 10,100 900 Climbing Fort Worth Center
05:14PM 33.8492 -93.9975 350° North 125 144 10,900 720 Climbing Fort Worth Center
05:16PM 33.8828 -94.0028 353° North 124 143 11,700 720 Climbing Fort Worth Center
05:17PM 33.9181 -94.0050 357° North 124 143 12,500 720 Climbing Fort Worth Center
05:18PM 33.9533 -94.0078 356° North 125 144 13,200 660 Climbing Fort Worth Center
05:19PM 33.9889 -94.0111 356° North 126 145 13,900 360 Climbing Fort Worth Center
05:20PM 34.0372 -94.0264 345° North 144 166 14,000 120 Climbing Fort Worth Center
05:21PM 34.0817 -94.0389 347° North 158 182 14,200  Climbing Fort Worth Center
05:22PM 34.1283 -94.0450 354° North 164 189 14,100 -60 Descending Fort Worth Center
05:23PM 34.1742 -94.0442 North 165 190 14,100  Level Fort Worth Center
05:24PM 34.2228 -94.0381 North 170 196 14,100  Level Fort Worth Center
05:25PM 34.2667 -94.0419 356° North 161 185 14,200  Climbing Fort Worth Center
05:26PM 34.3186 -94.0544 349° North 159 183 14,100 -120 Descending Fort Worth Center
05:27PM 34.3625 -94.0611 353° North 159 183 14,000 -60 Descending Fort Worth Center
05:28PM 34.4025 -94.0769 342° North 156 180 14,000  Level Fort Worth Center
05:29PM 34.4428 -94.0936 341° North 155 178 14,000  Level Fort Worth Center
05:30PM 34.4833 -94.1081 344° North 155 178 14,000  Level Fort Worth Center
05:31PM 34.5342 -94.1197 349° North 155 178 14,100  Climbing Memphis Center
05:32PM 34.5797 -94.1228 357° North 162 186 14,100  Level Memphis Center
05:33PM 34.6236 -94.1256 357° North 162 186 14,100  Level Memphis Center
05:34PM 34.6700 -94.1306 355° North 162 186 14,100  Level Memphis Center
05:35PM 34.7200 -94.1444 347° North 158 182 14,100  Level Memphis Center
05:36PM 34.7619 -94.1547 349° North 155 178 14,100  Level Memphis Center
05:37PM 34.8108 -94.1456 North 171 197 14,100  Level Memphis Center
05:38PM 34.8578 -94.1361 North 171 197 14,100  Level Memphis Center
05:39PM 34.9058 -94.1306 North 171 197 14,100  Level Memphis Center
05:40PM 34.9514 -94.1325 358° North 170 196 14,100  Level Memphis Center
05:41PM 35.0081 -94.1294 North 169 194 14,100  Level Memphis Center
05:42PM 35.0442 -94.1300 359° North 169 194 14,100  Level Memphis Center
05:44PM 35.0986 -94.1311 359° North 166 191 14,100 -60 Level Memphis Center
05:45PM 35.1436 -94.1314 360° North 162 186 14,000 -60 Descending Memphis Center
05:46PM 35.1903 -94.1289 North 163 188 14,000  Level Memphis Center
05:47PM 35.2364 -94.1261 North 165 190 14,100  Climbing Memphis Center
05:48PM 35.2917 -94.1272 359° North 165 190 14,100 -120 Level Memphis Center
05:49PM 35.3375 -94.1308 356° North 165 190 13,900 -420 Descending Memphis Center
05:50PM 35.3881 -94.1356 356° North 173 199 13,300 -600 Descending Memphis Center
05:51PM 35.4411 -94.1406 356° North 183 211 12,700 -780 Descending Memphis Center
05:52PM 35.4969 -94.1444 357° North 192 221 11,700 -1,260 Descending Memphis Center
05:53PM 35.5567 -94.1492 356° North 196 226 10,200 -1,200 Descending Memphis Center
05:54PM 35.6242 -94.1442 North 208 239 9,300 -1,020 Descending Memphis Center
05:55PM 35.6808 -94.1353 North 208 239 8,200 -1,020 Descending Memphis Center
05:56PM 35.7389 -94.1092 20° North 208 239 7,300 -840 Descending Memphis Center
05:57PM 35.7928 -94.0992 North 202 232 6,500 -960 Descending Memphis Center
05:58PM 35.8478 -94.1028 357° North 200 230 5,400 -720 Descending Memphis Center
05:59PM 35.9008 -94.1061 357° North 198 228 5,100 -180 Descending Memphis Center
06:00PM 35.9447 -94.1058 360° North 175 201 5,100 -240 Level Memphis Center
06:01PM 35.9856 -94.1111 354° North 160 184 4,700 -660 Descending Memphis Center
06:02PM 36.0297 -94.1186 352° North 155 178 3,800 -900 Descending Memphis Center
06:04PM 36.0884 -94.1178 North  Level FlightAware Approximate
06:11PM 36.1667 -94.1167 North  Level FlightAware Approximate
06:12PM 36.1764 -94.1192 North  Level Estimated
06:13PM 36.1764 -94.1192 North  Level Estimated
06:14PM 36.1764 -94.1192 North  Level Estimated